sensor_id;sensor_type;location;lat;lon;timestamp;temperature;humidity
35523;DHT22;61478;50.820;4.330;2022-08-19T00:01:07;20.90;99.90
35523;DHT22;61478;50.820;4.330;2022-08-19T00:03:37;20.80;99.90
35523;DHT22;61478;50.820;4.330;2022-08-19T00:06:04;20.80;99.90
35523;DHT22;61478;50.820;4.330;2022-08-19T00:08:37;20.90;99.90
35523;DHT22;61478;50.820;4.330;2022-08-19T00:11:09;20.80;99.90
35523;DHT22;61478;50.820;4.330;2022-08-19T00:13:41;20.90;99.90
35523;DHT22;61478;50.820;4.330;2022-08-19T00:16:15;21.10;99.90
35523;DHT22;61478;50.820;4.330;2022-08-19T00:18:45;21.10;99.90
35523;DHT22;61478;50.820;4.330;2022-08-19T00:21:11;21.20;99.90
35523;DHT22;61478;50.820;4.330;2022-08-19T00:23:38;21.40;99.90
35523;DHT22;61478;50.820;4.330;2022-08-19T00:26:05;21.50;99.90
35523;DHT22;61478;50.820;4.330;2022-08-19T00:28:35;21.50;99.90
35523;DHT22;61478;50.820;4.330;2022-08-19T00:31:06;21.40;99.90
35523;DHT22;61478;50.820;4.330;2022-08-19T00:33:33;21.40;99.90
35523;DHT22;61478;50.820;4.330;2022-08-19T00:36:00;21.50;99.90
35523;DHT22;61478;50.820;4.330;2022-08-19T00:38:36;21.40;99.90
35523;DHT22;61478;50.820;4.330;2022-08-19T00:41:17;21.40;99.90
35523;DHT22;61478;50.820;4.330;2022-08-19T00:44:00;21.30;99.90
35523;DHT22;61478;50.820;4.330;2022-08-19T00:46:29;21.00;99.90
35523;DHT22;61478;50.820;4.330;2022-08-19T00:49:00;21.00;99.90
35523;DHT22;61478;50.820;4.330;2022-08-19T00:51:31;21.00;99.90
35523;DHT22;61478;50.820;4.330;2022-08-19T00:54:00;21.00;99.90
35523;DHT22;61478;50.820;4.330;2022-08-19T00:56:31;21.10;99.90
35523;DHT22;61478;50.820;4.330;2022-08-19T00:59:02;21.20;99.90
35523;DHT22;61478;50.820;4.330;2022-08-19T01:01:40;21.30;99.90
35523;DHT22;61478;50.820;4.330;2022-08-19T01:04:09;21.30;99.90
35523;DHT22;61478;50.820;4.330;2022-08-19T01:06:37;21.30;99.90
35523;DHT22;61478;50.820;4.330;2022-08-19T01:09:08;21.20;99.90
35523;DHT22;61478;50.820;4.330;2022-08-19T01:11:40;21.30;99.90
35523;DHT22;61478;50.820;4.330;2022-08-19T01:14:09;21.10;99.90
35523;DHT22;61478;50.820;4.330;2022-08-19T01:16:40;21.10;99.90
35523;DHT22;61478;50.820;4.330;2022-08-19T01:19:16;21.00;99.90
35523;DHT22;61478;50.820;4.330;2022-08-19T01:21:57;20.90;99.90
35523;DHT22;61478;50.820;4.330;2022-08-19T01:24:32;20.90;99.90
35523;DHT22;61478;50.820;4.330;2022-08-19T01:27:04;20.80;99.90
35523;DHT22;61478;50.820;4.330;2022-08-19T01:29:31;20.80;99.90
35523;DHT22;61478;50.820;4.330;2022-08-19T01:32:01;20.70;99.90
35523;DHT22;61478;50.820;4.330;2022-08-19T01:34:31;20.60;99.90
35523;DHT22;61478;50.820;4.330;2022-08-19T01:37:07;20.60;99.90
35523;DHT22;61478;50.820;4.330;2022-08-19T01:39:39;20.40;99.90
35523;DHT22;61478;50.820;4.330;2022-08-19T01:42:09;20.40;99.90
35523;DHT22;61478;50.820;4.330;2022-08-19T01:44:40;20.40;99.90
35523;DHT22;61478;50.820;4.330;2022-08-19T01:47:17;20.40;99.90
35523;DHT22;61478;50.820;4.330;2022-08-19T01:49:48;20.40;99.90
35523;DHT22;61478;50.820;4.330;2022-08-19T01:52:18;20.30;99.90
35523;DHT22;61478;50.820;4.330;2022-08-19T01:54:47;20.30;99.90
35523;DHT22;61478;50.820;4.330;2022-08-19T01:57:14;20.20;99.90
35523;DHT22;61478;50.820;4.330;2022-08-19T01:59:45;20.20;99.90
35523;DHT22;61478;50.820;4.330;2022-08-19T02:02:11;20.20;99.90
35523;DHT22;61478;50.820;4.330;2022-08-19T02:04:38;20.20;99.90
35523;DHT22;61478;50.820;4.330;2022-08-19T02:07:06;20.10;99.90
35523;DHT22;61478;50.820;4.330;2022-08-19T02:09:35;20.20;99.90
35523;DHT22;61478;50.820;4.330;2022-08-19T02:12:07;20.30;99.90
35523;DHT22;61478;50.820;4.330;2022-08-19T02:14:39;20.20;99.90
35523;DHT22;61478;50.820;4.330;2022-08-19T02:17:06;20.00;99.90
35523;DHT22;61478;50.820;4.330;2022-08-19T02:19:36;19.90;99.90
35523;DHT22;61478;50.820;4.330;2022-08-19T02:22:05;19.80;99.90
35523;DHT22;61478;50.820;4.330;2022-08-19T02:24:34;19.80;99.90
35523;DHT22;61478;50.820;4.330;2022-08-19T02:27:04;19.70;99.90
35523;DHT22;61478;50.820;4.330;2022-08-19T02:29:33;19.80;99.90
35523;DHT22;61478;50.820;4.330;2022-08-19T02:32:00;19.70;99.90
35523;DHT22;61478;50.820;4.330;2022-08-19T02:34:29;19.70;99.90
35523;DHT22;61478;50.820;4.330;2022-08-19T02:36:55;19.70;99.90
35523;DHT22;61478;50.820;4.330;2022-08-19T02:39:24;19.70;99.90
35523;DHT22;61478;50.820;4.330;2022-08-19T02:41:56;19.60;99.90
35523;DHT22;61478;50.820;4.330;2022-08-19T02:44:28;19.60;99.90
35523;DHT22;61478;50.820;4.330;2022-08-19T02:46:58;19.60;99.90
35523;DHT22;61478;50.820;4.330;2022-08-19T02:49:26;19.60;99.90
35523;DHT22;61478;50.820;4.330;2022-08-19T02:51:56;19.50;99.90
35523;DHT22;61478;50.820;4.330;2022-08-19T02:54:24;19.50;99.90
35523;DHT22;61478;50.820;4.330;2022-08-19T02:56:51;19.50;99.90
35523;DHT22;61478;50.820;4.330;2022-08-19T02:59:21;19.40;99.90
35523;DHT22;61478;50.820;4.330;2022-08-19T03:01:51;19.60;99.90
35523;DHT22;61478;50.820;4.330;2022-08-19T03:04:20;19.50;99.90
35523;DHT22;61478;50.820;4.330;2022-08-19T03:06:50;19.50;99.90
35523;DHT22;61478;50.820;4.330;2022-08-19T03:09:30;19.50;99.90
35523;DHT22;61478;50.820;4.330;2022-08-19T03:12:03;19.50;99.90
35523;DHT22;61478;50.820;4.330;2022-08-19T03:14:33;19.30;99.90
35523;DHT22;61478;50.820;4.330;2022-08-19T03:17:03;19.30;99.90
35523;DHT22;61478;50.820;4.330;2022-08-19T03:19:33;19.20;99.90
35523;DHT22;61478;50.820;4.330;2022-08-19T03:22:02;19.30;99.90
35523;DHT22;61478;50.820;4.330;2022-08-19T03:24:34;19.20;99.90
35523;DHT22;61478;50.820;4.330;2022-08-19T03:27:06;19.10;99.90
35523;DHT22;61478;50.820;4.330;2022-08-19T03:29:41;19.20;99.90
35523;DHT22;61478;50.820;4.330;2022-08-19T03:32:13;19.10;99.90
35523;DHT22;61478;50.820;4.330;2022-08-19T03:34:42;19.00;99.90
35523;DHT22;61478;50.820;4.330;2022-08-19T03:37:12;19.00;99.90
35523;DHT22;61478;50.820;4.330;2022-08-19T03:39:41;19.00;99.90
35523;DHT22;61478;50.820;4.330;2022-08-19T03:42:11;19.00;99.90
35523;DHT22;61478;50.820;4.330;2022-08-19T03:44:41;19.00;99.90
35523;DHT22;61478;50.820;4.330;2022-08-19T03:47:10;19.00;99.90
35523;DHT22;61478;50.820;4.330;2022-08-19T03:49:46;19.00;99.90
35523;DHT22;61478;50.820;4.330;2022-08-19T03:52:17;18.90;99.90
35523;DHT22;61478;50.820;4.330;2022-08-19T03:54:49;18.80;99.90
35523;DHT22;61478;50.820;4.330;2022-08-19T03:57:26;18.80;99.90
35523;DHT22;61478;50.820;4.330;2022-08-19T03:59:53;18.80;99.90
35523;DHT22;61478;50.820;4.330;2022-08-19T04:02:22;18.80;99.90
35523;DHT22;61478;50.820;4.330;2022-08-19T04:04:56;18.70;99.90
35523;DHT22;61478;50.820;4.330;2022-08-19T04:07:23;18.60;99.90
35523;DHT22;61478;50.820;4.330;2022-08-19T04:09:55;18.50;99.90
35523;DHT22;61478;50.820;4.330;2022-08-19T04:12:21;18.50;99.90
35523;DHT22;61478;50.820;4.330;2022-08-19T04:14:47;18.40;99.90
35523;DHT22;61478;50.820;4.330;2022-08-19T04:17:16;18.30;99.90
35523;DHT22;61478;50.820;4.330;2022-08-19T04:19:46;18.30;99.90
35523;DHT22;61478;50.820;4.330;2022-08-19T04:22:12;18.30;99.90
35523;DHT22;61478;50.820;4.330;2022-08-19T04:24:43;18.40;99.90
35523;DHT22;61478;50.820;4.330;2022-08-19T04:27:13;18.30;99.90
35523;DHT22;61478;50.820;4.330;2022-08-19T04:29:45;18.30;99.90
35523;DHT22;61478;50.820;4.330;2022-08-19T04:32:15;18.30;99.90
35523;DHT22;61478;50.820;4.330;2022-08-19T04:34:41;18.30;99.90
35523;DHT22;61478;50.820;4.330;2022-08-19T04:37:10;18.20;99.90
35523;DHT22;61478;50.820;4.330;2022-08-19T04:39:39;18.20;99.90
35523;DHT22;61478;50.820;4.330;2022-08-19T04:42:28;18.20;99.90
35523;DHT22;61478;50.820;4.330;2022-08-19T04:45:10;18.10;99.90
35523;DHT22;61478;50.820;4.330;2022-08-19T04:47:38;18.20;99.90
35523;DHT22;61478;50.820;4.330;2022-08-19T04:50:08;18.20;99.90
35523;DHT22;61478;50.820;4.330;2022-08-19T04:52:38;18.30;99.90
35523;DHT22;61478;50.820;4.330;2022-08-19T04:55:13;18.20;99.90
35523;DHT22;61478;50.820;4.330;2022-08-19T04:57:46;18.30;99.90
35523;DHT22;61478;50.820;4.330;2022-08-19T05:00:14;18.30;99.90
35523;DHT22;61478;50.820;4.330;2022-08-19T05:02:41;18.20;99.90
35523;DHT22;61478;50.820;4.330;2022-08-19T05:05:07;18.20;99.90
35523;DHT22;61478;50.820;4.330;2022-08-19T05:07:36;18.20;99.90
35523;DHT22;61478;50.820;4.330;2022-08-19T05:10:07;18.20;99.90
35523;DHT22;61478;50.820;4.330;2022-08-19T05:12:33;18.30;99.90
35523;DHT22;61478;50.820;4.330;2022-08-19T05:15:00;18.40;99.90
35523;DHT22;61478;50.820;4.330;2022-08-19T05:17:27;18.30;99.90
35523;DHT22;61478;50.820;4.330;2022-08-19T05:19:57;18.30;99.90
35523;DHT22;61478;50.820;4.330;2022-08-19T05:22:43;18.30;99.90
35523;DHT22;61478;50.820;4.330;2022-08-19T05:25:16;18.30;99.90
35523;DHT22;61478;50.820;4.330;2022-08-19T05:27:46;18.30;99.90
35523;DHT22;61478;50.820;4.330;2022-08-19T05:30:16;18.30;99.90
35523;DHT22;61478;50.820;4.330;2022-08-19T05:32:45;18.40;99.90
35523;DHT22;61478;50.820;4.330;2022-08-19T05:35:17;18.40;99.90
35523;DHT22;61478;50.820;4.330;2022-08-19T05:37:48;18.40;99.90
35523;DHT22;61478;50.820;4.330;2022-08-19T05:40:15;18.30;99.90
35523;DHT22;61478;50.820;4.330;2022-08-19T05:42:46;18.30;99.90
35523;DHT22;61478;50.820;4.330;2022-08-19T05:45:12;18.30;99.90
35523;DHT22;61478;50.820;4.330;2022-08-19T05:47:42;18.40;99.90
35523;DHT22;61478;50.820;4.330;2022-08-19T05:50:12;18.40;99.90
35523;DHT22;61478;50.820;4.330;2022-08-19T05:52:41;18.50;99.90
35523;DHT22;61478;50.820;4.330;2022-08-19T05:55:10;18.50;99.90
35523;DHT22;61478;50.820;4.330;2022-08-19T05:57:37;18.60;99.90
35523;DHT22;61478;50.820;4.330;2022-08-19T06:00:07;18.60;99.90
35523;DHT22;61478;50.820;4.330;2022-08-19T06:02:36;18.60;99.90
35523;DHT22;61478;50.820;4.330;2022-08-19T06:05:04;18.70;99.90
35523;DHT22;61478;50.820;4.330;2022-08-19T06:07:38;18.80;99.90
35523;DHT22;61478;50.820;4.330;2022-08-19T06:10:07;18.90;99.90
35523;DHT22;61478;50.820;4.330;2022-08-19T06:12:34;18.90;99.90
35523;DHT22;61478;50.820;4.330;2022-08-19T06:15:09;19.00;99.90
35523;DHT22;61478;50.820;4.330;2022-08-19T06:17:39;19.00;99.90
35523;DHT22;61478;50.820;4.330;2022-08-19T06:20:09;19.00;99.90
35523;DHT22;61478;50.820;4.330;2022-08-19T06:22:40;19.00;99.90
35523;DHT22;61478;50.820;4.330;2022-08-19T06:25:08;19.10;99.90
35523;DHT22;61478;50.820;4.330;2022-08-19T06:27:38;19.20;99.90
35523;DHT22;61478;50.820;4.330;2022-08-19T06:30:07;19.20;99.90
35523;DHT22;61478;50.820;4.330;2022-08-19T06:32:38;19.10;99.90
35523;DHT22;61478;50.820;4.330;2022-08-19T06:35:06;19.20;99.90
35523;DHT22;61478;50.820;4.330;2022-08-19T06:37:33;19.30;99.90
35523;DHT22;61478;50.820;4.330;2022-08-19T06:40:02;19.40;99.90
35523;DHT22;61478;50.820;4.330;2022-08-19T06:42:29;19.50;99.90
35523;DHT22;61478;50.820;4.330;2022-08-19T06:44:57;19.50;99.90
35523;DHT22;61478;50.820;4.330;2022-08-19T06:47:27;19.60;99.90
35523;DHT22;61478;50.820;4.330;2022-08-19T06:49:56;19.60;99.90
35523;DHT22;61478;50.820;4.330;2022-08-19T06:52:33;19.70;99.90
35523;DHT22;61478;50.820;4.330;2022-08-19T06:55:02;19.70;99.90
35523;DHT22;61478;50.820;4.330;2022-08-19T06:57:29;19.70;99.90
35523;DHT22;61478;50.820;4.330;2022-08-19T06:59:57;19.70;99.90
35523;DHT22;61478;50.820;4.330;2022-08-19T07:02:26;19.80;99.90
35523;DHT22;61478;50.820;4.330;2022-08-19T07:04:55;19.80;99.90
35523;DHT22;61478;50.820;4.330;2022-08-19T07:07:23;19.80;99.90
35523;DHT22;61478;50.820;4.330;2022-08-19T07:09:50;19.80;99.90
35523;DHT22;61478;50.820;4.330;2022-08-19T07:12:21;19.80;99.90
35523;DHT22;61478;50.820;4.330;2022-08-19T07:14:52;19.90;99.90
35523;DHT22;61478;50.820;4.330;2022-08-19T07:17:24;20.00;99.90
35523;DHT22;61478;50.820;4.330;2022-08-19T07:19:50;20.10;99.90
35523;DHT22;61478;50.820;4.330;2022-08-19T07:22:21;20.00;99.90
35523;DHT22;61478;50.820;4.330;2022-08-19T07:24:53;20.10;99.90
35523;DHT22;61478;50.820;4.330;2022-08-19T07:27:27;20.10;99.90
35523;DHT22;61478;50.820;4.330;2022-08-19T07:29:57;20.20;99.90
35523;DHT22;61478;50.820;4.330;2022-08-19T07:32:23;20.10;99.90
35523;DHT22;61478;50.820;4.330;2022-08-19T07:34:52;20.10;99.90
35523;DHT22;61478;50.820;4.330;2022-08-19T07:37:18;20.20;99.90
35523;DHT22;61478;50.820;4.330;2022-08-19T07:39:44;20.30;99.90
35523;DHT22;61478;50.820;4.330;2022-08-19T07:42:11;20.30;99.90
35523;DHT22;61478;50.820;4.330;2022-08-19T07:44:41;20.40;99.90
35523;DHT22;61478;50.820;4.330;2022-08-19T07:47:13;20.40;99.90
35523;DHT22;61478;50.820;4.330;2022-08-19T07:49:45;20.40;99.90
35523;DHT22;61478;50.820;4.330;2022-08-19T07:52:14;20.50;99.90
35523;DHT22;61478;50.820;4.330;2022-08-19T07:54:49;20.40;99.90
35523;DHT22;61478;50.820;4.330;2022-08-19T07:57:16;20.50;99.90
35523;DHT22;61478;50.820;4.330;2022-08-19T07:59:46;20.50;99.90
35523;DHT22;61478;50.820;4.330;2022-08-19T08:02:15;20.60;99.90
35523;DHT22;61478;50.820;4.330;2022-08-19T08:04:45;20.70;99.90
35523;DHT22;61478;50.820;4.330;2022-08-19T08:07:29;20.80;99.90
35523;DHT22;61478;50.820;4.330;2022-08-19T08:10:14;20.90;99.90
35523;DHT22;61478;50.820;4.330;2022-08-19T08:12:43;21.00;99.90
35523;DHT22;61478;50.820;4.330;2022-08-19T08:15:14;21.00;99.90
35523;DHT22;61478;50.820;4.330;2022-08-19T08:17:42;21.00;99.90
35523;DHT22;61478;50.820;4.330;2022-08-19T08:20:10;21.10;99.90
35523;DHT22;61478;50.820;4.330;2022-08-19T08:22:36;21.10;99.90
35523;DHT22;61478;50.820;4.330;2022-08-19T08:25:23;21.20;99.90
35523;DHT22;61478;50.820;4.330;2022-08-19T08:27:49;21.10;99.90
35523;DHT22;61478;50.820;4.330;2022-08-19T08:30:21;21.20;99.90
35523;DHT22;61478;50.820;4.330;2022-08-19T08:32:48;21.20;99.90
35523;DHT22;61478;50.820;4.330;2022-08-19T08:35:18;21.30;99.90
35523;DHT22;61478;50.820;4.330;2022-08-19T08:37:47;21.40;99.90
35523;DHT22;61478;50.820;4.330;2022-08-19T08:40:44;21.50;99.90
35523;DHT22;61478;50.820;4.330;2022-08-19T08:45:49;21.40;99.90
35523;DHT22;61478;50.820;4.330;2022-08-19T08:48:25;21.40;99.90
35523;DHT22;61478;50.820;4.330;2022-08-19T08:50:59;21.30;99.90
35523;DHT22;61478;50.820;4.330;2022-08-19T08:53:31;21.30;99.90
35523;DHT22;61478;50.820;4.330;2022-08-19T08:56:03;21.30;99.90
35523;DHT22;61478;50.820;4.330;2022-08-19T08:58:54;21.50;99.90
35523;DHT22;61478;50.820;4.330;2022-08-19T09:01:25;21.40;99.90
35523;DHT22;61478;50.820;4.330;2022-08-19T09:03:54;21.40;99.90
35523;DHT22;61478;50.820;4.330;2022-08-19T09:09:32;21.50;99.90
35523;DHT22;61478;50.820;4.330;2022-08-19T09:12:20;21.40;99.90
35523;DHT22;61478;50.820;4.330;2022-08-19T09:14:58;21.50;99.90
35523;DHT22;61478;50.820;4.330;2022-08-19T09:17:28;21.40;99.90
35523;DHT22;61478;50.820;4.330;2022-08-19T09:20:21;21.60;99.90
35523;DHT22;61478;50.820;4.330;2022-08-19T09:22:48;21.70;99.90
35523;DHT22;61478;50.820;4.330;2022-08-19T09:25:20;21.60;99.90
35523;DHT22;61478;50.820;4.330;2022-08-19T09:27:48;21.60;99.90
35523;DHT22;61478;50.820;4.330;2022-08-19T09:30:18;21.70;99.90
35523;DHT22;61478;50.820;4.330;2022-08-19T09:32:45;21.60;99.90
35523;DHT22;61478;50.820;4.330;2022-08-19T09:35:12;21.60;99.90
35523;DHT22;61478;50.820;4.330;2022-08-19T09:37:38;21.70;99.90
35523;DHT22;61478;50.820;4.330;2022-08-19T09:40:05;21.70;99.90
35523;DHT22;61478;50.820;4.330;2022-08-19T09:42:31;21.70;99.90
35523;DHT22;61478;50.820;4.330;2022-08-19T09:44:57;21.90;99.90
35523;DHT22;61478;50.820;4.330;2022-08-19T09:47:23;22.00;99.90
35523;DHT22;61478;50.820;4.330;2022-08-19T09:49:49;22.00;99.90
35523;DHT22;61478;50.820;4.330;2022-08-19T09:52:16;22.00;99.90
35523;DHT22;61478;50.820;4.330;2022-08-19T09:54:43;22.00;99.90
35523;DHT22;61478;50.820;4.330;2022-08-19T09:57:09;21.90;99.90
35523;DHT22;61478;50.820;4.330;2022-08-19T09:59:35;21.90;99.90
35523;DHT22;61478;50.820;4.330;2022-08-19T10:02:01;22.00;99.90
35523;DHT22;61478;50.820;4.330;2022-08-19T10:04:27;22.10;99.90
35523;DHT22;61478;50.820;4.330;2022-08-19T10:07:13;22.10;99.90
35523;DHT22;61478;50.820;4.330;2022-08-19T10:09:39;22.10;99.90
35523;DHT22;61478;50.820;4.330;2022-08-19T10:12:06;22.10;99.90
35523;DHT22;61478;50.820;4.330;2022-08-19T10:14:33;22.20;99.90
35523;DHT22;61478;50.820;4.330;2022-08-19T10:16:59;22.20;99.90
35523;DHT22;61478;50.820;4.330;2022-08-19T10:19:28;22.30;99.90
35523;DHT22;61478;50.820;4.330;2022-08-19T10:21:58;22.40;99.90
35523;DHT22;61478;50.820;4.330;2022-08-19T10:24:24;22.40;99.90
35523;DHT22;61478;50.820;4.330;2022-08-19T10:26:51;22.20;99.90
35523;DHT22;61478;50.820;4.330;2022-08-19T10:29:17;22.30;99.90
35523;DHT22;61478;50.820;4.330;2022-08-19T10:31:43;22.30;99.90
35523;DHT22;61478;50.820;4.330;2022-08-19T10:34:09;22.30;99.90
35523;DHT22;61478;50.820;4.330;2022-08-19T10:36:36;22.20;99.90
35523;DHT22;61478;50.820;4.330;2022-08-19T10:39:08;22.30;99.90
35523;DHT22;61478;50.820;4.330;2022-08-19T10:41:37;22.40;99.90
35523;DHT22;61478;50.820;4.330;2022-08-19T10:44:09;22.30;99.90
35523;DHT22;61478;50.820;4.330;2022-08-19T10:46:38;22.40;99.90
35523;DHT22;61478;50.820;4.330;2022-08-19T10:49:05;22.40;99.90
35523;DHT22;61478;50.820;4.330;2022-08-19T10:51:32;22.40;99.90
35523;DHT22;61478;50.820;4.330;2022-08-19T10:54:16;22.50;99.90
35523;DHT22;61478;50.820;4.330;2022-08-19T10:56:43;22.40;99.90
35523;DHT22;61478;50.820;4.330;2022-08-19T10:59:27;22.40;99.90
35523;DHT22;61478;50.820;4.330;2022-08-19T11:01:58;22.40;99.90
35523;DHT22;61478;50.820;4.330;2022-08-19T11:04:24;22.50;99.90
35523;DHT22;61478;50.820;4.330;2022-08-19T11:06:51;22.60;99.90
35523;DHT22;61478;50.820;4.330;2022-08-19T11:09:22;22.70;99.90
35523;DHT22;61478;50.820;4.330;2022-08-19T11:11:53;22.70;99.90
35523;DHT22;61478;50.820;4.330;2022-08-19T11:14:20;22.60;99.90
35523;DHT22;61478;50.820;4.330;2022-08-19T11:16:47;22.50;99.90
35523;DHT22;61478;50.820;4.330;2022-08-19T11:19:15;22.40;99.90
35523;DHT22;61478;50.820;4.330;2022-08-19T11:21:47;22.40;99.90
35523;DHT22;61478;50.820;4.330;2022-08-19T11:24:19;22.40;99.90
35523;DHT22;61478;50.820;4.330;2022-08-19T11:26:47;22.30;99.90
35523;DHT22;61478;50.820;4.330;2022-08-19T11:29:18;22.20;99.90
35523;DHT22;61478;50.820;4.330;2022-08-19T11:31:46;22.40;99.90
35523;DHT22;61478;50.820;4.330;2022-08-19T11:34:20;22.50;99.90
35523;DHT22;61478;50.820;4.330;2022-08-19T11:36:47;22.50;99.90
35523;DHT22;61478;50.820;4.330;2022-08-19T11:39:18;22.50;99.90
35523;DHT22;61478;50.820;4.330;2022-08-19T11:41:44;22.50;99.90
35523;DHT22;61478;50.820;4.330;2022-08-19T11:44:10;22.60;99.90
35523;DHT22;61478;50.820;4.330;2022-08-19T11:46:37;22.60;99.90
35523;DHT22;61478;50.820;4.330;2022-08-19T11:49:05;22.70;99.90
35523;DHT22;61478;50.820;4.330;2022-08-19T11:51:32;22.80;99.90
35523;DHT22;61478;50.820;4.330;2022-08-19T11:53:59;22.80;99.90
35523;DHT22;61478;50.820;4.330;2022-08-19T11:56:27;22.90;99.90
35523;DHT22;61478;50.820;4.330;2022-08-19T11:58:54;23.10;99.90
35523;DHT22;61478;50.820;4.330;2022-08-19T12:01:24;23.30;99.90
35523;DHT22;61478;50.820;4.330;2022-08-19T12:03:52;23.50;99.90
35523;DHT22;61478;50.820;4.330;2022-08-19T12:06:20;23.50;99.90
35523;DHT22;61478;50.820;4.330;2022-08-19T12:08:49;23.60;99.90
35523;DHT22;61478;50.820;4.330;2022-08-19T12:11:15;23.70;99.90
35523;DHT22;61478;50.820;4.330;2022-08-19T12:13:41;23.90;99.90
35523;DHT22;61478;50.820;4.330;2022-08-19T12:16:17;24.00;99.90
35523;DHT22;61478;50.820;4.330;2022-08-19T12:18:44;24.00;99.90
35523;DHT22;61478;50.820;4.330;2022-08-19T12:21:19;23.90;99.90
35523;DHT22;61478;50.820;4.330;2022-08-19T12:23:48;23.80;99.90
35523;DHT22;61478;50.820;4.330;2022-08-19T12:26:15;23.80;99.90
35523;DHT22;61478;50.820;4.330;2022-08-19T12:28:40;23.80;99.90
35523;DHT22;61478;50.820;4.330;2022-08-19T12:31:07;23.90;99.90
35523;DHT22;61478;50.820;4.330;2022-08-19T12:33:33;24.00;99.90
35523;DHT22;61478;50.820;4.330;2022-08-19T12:36:04;24.00;99.90
35523;DHT22;61478;50.820;4.330;2022-08-19T12:38:32;24.10;99.90
35523;DHT22;61478;50.820;4.330;2022-08-19T12:40:58;24.10;99.90
35523;DHT22;61478;50.820;4.330;2022-08-19T12:43:24;24.20;99.90
35523;DHT22;61478;50.820;4.330;2022-08-19T12:45:50;24.20;99.90
35523;DHT22;61478;50.820;4.330;2022-08-19T12:48:16;24.40;99.90
35523;DHT22;61478;50.820;4.330;2022-08-19T12:50:44;24.30;99.90
35523;DHT22;61478;50.820;4.330;2022-08-19T12:53:14;24.30;99.90
35523;DHT22;61478;50.820;4.330;2022-08-19T12:55:41;24.40;99.90
35523;DHT22;61478;50.820;4.330;2022-08-19T12:58:08;24.50;99.90
35523;DHT22;61478;50.820;4.330;2022-08-19T13:00:34;24.60;99.90
35523;DHT22;61478;50.820;4.330;2022-08-19T13:03:00;24.70;99.90
35523;DHT22;61478;50.820;4.330;2022-08-19T13:05:29;24.90;99.90
35523;DHT22;61478;50.820;4.330;2022-08-19T13:07:57;24.80;99.90
35523;DHT22;61478;50.820;4.330;2022-08-19T13:10:28;24.80;99.90
35523;DHT22;61478;50.820;4.330;2022-08-19T13:12:55;24.70;99.90
35523;DHT22;61478;50.820;4.330;2022-08-19T13:15:23;24.60;99.90
35523;DHT22;61478;50.820;4.330;2022-08-19T13:17:51;24.60;99.90
35523;DHT22;61478;50.820;4.330;2022-08-19T13:20:19;24.60;99.90
35523;DHT22;61478;50.820;4.330;2022-08-19T13:22:46;24.40;99.90
35523;DHT22;61478;50.820;4.330;2022-08-19T13:25:13;24.40;99.90
35523;DHT22;61478;50.820;4.330;2022-08-19T13:27:40;24.40;99.90
35523;DHT22;61478;50.820;4.330;2022-08-19T13:30:08;24.50;99.90
35523;DHT22;61478;50.820;4.330;2022-08-19T13:32:53;24.60;99.90
35523;DHT22;61478;50.820;4.330;2022-08-19T13:35:46;24.60;99.90
35523;DHT22;61478;50.820;4.330;2022-08-19T13:38:14;24.70;99.90
35523;DHT22;61478;50.820;4.330;2022-08-19T13:40:41;24.70;99.90
35523;DHT22;61478;50.820;4.330;2022-08-19T13:43:08;24.70;99.90
35523;DHT22;61478;50.820;4.330;2022-08-19T13:45:35;24.70;99.90
35523;DHT22;61478;50.820;4.330;2022-08-19T13:48:05;24.70;99.90
35523;DHT22;61478;50.820;4.330;2022-08-19T13:50:32;24.70;99.90
35523;DHT22;61478;50.820;4.330;2022-08-19T13:52:59;24.70;99.90
35523;DHT22;61478;50.820;4.330;2022-08-19T13:55:26;24.60;99.90
35523;DHT22;61478;50.820;4.330;2022-08-19T13:57:53;24.50;99.90
35523;DHT22;61478;50.820;4.330;2022-08-19T14:00:21;24.50;99.90
35523;DHT22;61478;50.820;4.330;2022-08-19T14:02:51;24.20;99.90
35523;DHT22;61478;50.820;4.330;2022-08-19T14:05:18;24.20;99.90
35523;DHT22;61478;50.820;4.330;2022-08-19T14:07:47;24.00;99.90
35523;DHT22;61478;50.820;4.330;2022-08-19T14:10:15;23.80;99.90
35523;DHT22;61478;50.820;4.330;2022-08-19T14:12:41;23.60;99.90
35523;DHT22;61478;50.820;4.330;2022-08-19T14:15:09;23.60;99.90
35523;DHT22;61478;50.820;4.330;2022-08-19T14:17:38;23.60;99.90
35523;DHT22;61478;50.820;4.330;2022-08-19T14:20:06;23.60;99.90
35523;DHT22;61478;50.820;4.330;2022-08-19T14:22:36;23.50;99.90
35523;DHT22;61478;50.820;4.330;2022-08-19T14:25:07;23.50;99.90
35523;DHT22;61478;50.820;4.330;2022-08-19T14:27:35;23.50;99.90
35523;DHT22;61478;50.820;4.330;2022-08-19T14:30:03;23.40;99.90
35523;DHT22;61478;50.820;4.330;2022-08-19T14:32:29;23.40;99.90
35523;DHT22;61478;50.820;4.330;2022-08-19T14:34:55;23.30;99.90
35523;DHT22;61478;50.820;4.330;2022-08-19T14:37:21;23.30;99.90
35523;DHT22;61478;50.820;4.330;2022-08-19T14:39:48;23.00;99.90
35523;DHT22;61478;50.820;4.330;2022-08-19T14:42:14;22.80;99.90
35523;DHT22;61478;50.820;4.330;2022-08-19T14:44:41;22.70;99.90
35523;DHT22;61478;50.820;4.330;2022-08-19T14:47:07;22.90;99.90
35523;DHT22;61478;50.820;4.330;2022-08-19T14:49:33;22.90;99.90
35523;DHT22;61478;50.820;4.330;2022-08-19T14:51:59;22.90;99.90
35523;DHT22;61478;50.820;4.330;2022-08-19T14:54:25;23.00;99.90
35523;DHT22;61478;50.820;4.330;2022-08-19T14:56:51;23.10;99.90
35523;DHT22;61478;50.820;4.330;2022-08-19T14:59:17;23.40;99.90
35523;DHT22;61478;50.820;4.330;2022-08-19T15:01:44;23.40;99.90
35523;DHT22;61478;50.820;4.330;2022-08-19T15:04:10;23.50;99.90
35523;DHT22;61478;50.820;4.330;2022-08-19T15:06:35;23.80;99.90
35523;DHT22;61478;50.820;4.330;2022-08-19T15:09:02;23.90;99.90
35523;DHT22;61478;50.820;4.330;2022-08-19T15:11:28;23.90;99.90
35523;DHT22;61478;50.820;4.330;2022-08-19T15:13:58;23.80;99.90
35523;DHT22;61478;50.820;4.330;2022-08-19T15:16:25;23.80;99.90
35523;DHT22;61478;50.820;4.330;2022-08-19T15:18:55;23.80;99.90
35523;DHT22;61478;50.820;4.330;2022-08-19T15:21:22;23.90;99.90
35523;DHT22;61478;50.820;4.330;2022-08-19T15:23:50;24.10;99.90
35523;DHT22;61478;50.820;4.330;2022-08-19T15:26:17;24.10;99.90
35523;DHT22;61478;50.820;4.330;2022-08-19T15:28:44;24.20;99.90
35523;DHT22;61478;50.820;4.330;2022-08-19T15:31:11;24.20;99.90
35523;DHT22;61478;50.820;4.330;2022-08-19T15:33:38;24.20;99.90
35523;DHT22;61478;50.820;4.330;2022-08-19T15:36:10;24.20;99.90
35523;DHT22;61478;50.820;4.330;2022-08-19T15:38:39;24.20;99.90
35523;DHT22;61478;50.820;4.330;2022-08-19T15:41:22;24.10;99.90
35523;DHT22;61478;50.820;4.330;2022-08-19T15:43:50;24.20;99.90
35523;DHT22;61478;50.820;4.330;2022-08-19T15:46:22;24.20;99.90
35523;DHT22;61478;50.820;4.330;2022-08-19T15:48:49;24.00;99.90
35523;DHT22;61478;50.820;4.330;2022-08-19T15:51:15;24.00;99.90